createdAt,value
2018-08-20T00:00:56.031Z,5.03
2018-08-20T00:03:24.499Z,4.63
2018-08-20T00:05:55.055Z,5.27
2018-08-20T00:08:24.633Z,3.77
2018-08-20T00:10:55.283Z,4.70
2018-08-20T00:13:24.362Z,5.03
2018-08-20T00:15:53.443Z,5.60
2018-08-20T00:18:27.322Z,5.57
2018-08-20T00:20:55.859Z,6.67
2018-08-20T00:23:24.921Z,5.00
2018-08-20T00:25:56.618Z,5.80
2018-08-20T00:28:25.468Z,5.30
2018-08-20T00:30:53.926Z,5.90
2018-08-20T00:33:22.566Z,6.13
2018-08-20T00:35:51.025Z,4.57
2018-08-20T00:38:19.524Z,5.13
2018-08-20T00:40:48.215Z,6.37
2018-08-20T00:43:16.798Z,5.97
2018-08-20T00:45:45.379Z,5.93
2018-08-20T00:48:13.970Z,5.00
2018-08-20T00:50:42.400Z,5.80
2018-08-20T00:53:10.881Z,4.23
2018-08-20T00:55:39.392Z,6.10
2018-08-20T00:58:07.972Z,6.17
2018-08-20T01:00:36.421Z,6.53
2018-08-20T01:03:04.916Z,7.10
2018-08-20T01:05:33.360Z,5.77
2018-08-20T01:08:01.808Z,7.57
2018-08-20T01:10:30.526Z,6.50
2018-08-20T01:12:59.050Z,6.93
2018-08-20T01:15:27.488Z,5.73
2018-08-20T01:17:56.235Z,4.53
2018-08-20T01:20:25.031Z,3.67
2018-08-20T01:22:53.476Z,4.00
2018-08-20T01:25:22.092Z,4.40
2018-08-20T01:27:51.092Z,4.57
2018-08-20T01:30:19.651Z,5.00
2018-08-20T01:32:48.170Z,4.23
2018-08-20T01:35:23.148Z,3.77
2018-08-20T01:37:51.661Z,4.53
2018-08-20T01:40:20.120Z,5.87
2018-08-20T01:42:48.666Z,4.27
2018-08-20T01:45:17.132Z,3.67
2018-08-20T01:47:45.614Z,4.20
2018-08-20T01:50:14.166Z,4.57
2018-08-20T01:52:42.639Z,6.17
2018-08-20T01:55:11.098Z,6.27
2018-08-20T01:57:39.510Z,3.90
2018-08-20T02:00:08.023Z,6.07
2018-08-20T02:02:36.457Z,6.00
2018-08-20T02:05:05.999Z,3.83
2018-08-20T02:07:34.593Z,4.97
2018-08-20T02:10:03.079Z,3.87
2018-08-20T02:12:31.494Z,4.00
2018-08-20T02:15:00.067Z,3.73
2018-08-20T02:17:28.541Z,5.23
2018-08-20T02:19:57.013Z,5.83
2018-08-20T02:22:25.503Z,3.60
2018-08-20T02:24:54.052Z,4.77
2018-08-20T02:27:22.577Z,4.83
2018-08-20T02:29:51.025Z,6.10
2018-08-20T02:32:19.505Z,5.20
2018-08-20T02:34:48.223Z,4.97
2018-08-20T02:37:16.725Z,3.50
2018-08-20T02:39:45.175Z,4.80
2018-08-20T02:42:13.598Z,3.93
2018-08-20T02:44:42.125Z,4.77
2018-08-20T02:47:10.681Z,5.73
2018-08-20T02:49:39.147Z,3.73
2018-08-20T02:52:07.653Z,3.47
2018-08-20T02:54:36.178Z,5.47
2018-08-20T02:57:04.752Z,4.37
2018-08-20T02:59:33.351Z,3.73
2018-08-20T03:02:01.972Z,4.40
2018-08-20T03:04:30.419Z,4.83
2018-08-20T03:06:58.898Z,6.43
2018-08-20T03:09:27.325Z,5.43
2018-08-20T03:11:55.780Z,5.00
2018-08-20T03:14:24.236Z,4.37
2018-08-20T03:16:52.694Z,5.90
2018-08-20T03:19:21.171Z,5.03
2018-08-20T03:21:49.633Z,5.90
2018-08-20T03:24:18.120Z,5.50
2018-08-20T03:26:46.583Z,4.13
2018-08-20T03:29:15.033Z,4.97
2018-08-20T03:31:43.614Z,5.63
2018-08-20T03:34:12.180Z,6.03
2018-08-20T03:36:40.661Z,5.17
2018-08-20T03:39:09.097Z,4.10
2018-08-20T03:41:37.748Z,5.00
2018-08-20T03:44:06.525Z,5.20
2018-08-20T03:46:35.087Z,7.83
2018-08-20T03:49:03.521Z,5.47
2018-08-20T03:51:32.017Z,5.80
2018-08-20T03:54:00.471Z,5.47
2018-08-20T03:56:29.048Z,5.20
2018-08-20T03:58:57.633Z,9.63
2018-08-20T04:01:26.609Z,5.27
2018-08-20T04:03:55.475Z,7.53
2018-08-20T04:06:23.940Z,6.90
2018-08-20T04:08:52.380Z,6.10
2018-08-20T04:11:20.832Z,7.53
2018-08-20T04:13:49.415Z,7.23
2018-08-20T04:16:17.862Z,5.50
2018-08-20T04:18:46.294Z,6.13
2018-08-20T04:21:14.772Z,6.73
2018-08-20T04:23:43.188Z,5.60
2018-08-20T04:26:11.734Z,6.63
2018-08-20T04:28:40.236Z,12.50
2018-08-20T04:31:08.688Z,7.63
2018-08-20T04:33:37.116Z,6.40
2018-08-20T04:36:05.874Z,7.87
2018-08-20T04:38:34.444Z,11.03
2018-08-20T04:41:02.866Z,9.03
2018-08-20T04:43:31.318Z,7.67
2018-08-20T04:45:59.757Z,9.90
2018-08-20T04:48:28.278Z,9.53
2018-08-20T04:50:56.830Z,8.07
2018-08-20T04:53:25.191Z,8.37
2018-08-20T04:55:53.690Z,11.47
2018-08-20T04:58:22.190Z,13.37
2018-08-20T05:00:50.616Z,13.50
2018-08-20T05:03:19.034Z,11.40
2018-08-20T05:05:47.474Z,11.40
2018-08-20T05:08:15.906Z,13.17
2018-08-20T05:10:44.368Z,13.10
2018-08-20T05:13:12.830Z,10.20
2018-08-20T05:15:41.257Z,11.63
2018-08-20T05:18:10.270Z,13.87
2018-08-20T05:20:38.741Z,11.13
2018-08-20T05:23:07.306Z,11.97
2018-08-20T05:25:35.731Z,13.03
2018-08-20T05:28:04.229Z,13.60
2018-08-20T05:30:32.938Z,15.53
2018-08-20T05:33:01.437Z,14.37
2018-08-20T05:35:29.909Z,14.63
2018-08-20T05:37:58.407Z,14.50
2018-08-20T05:40:27.405Z,13.83
2018-08-20T05:42:55.887Z,13.97
2018-08-20T05:45:24.381Z,12.73
2018-08-20T05:47:52.837Z,13.07
2018-08-20T05:50:21.342Z,13.77
2018-08-20T05:52:49.837Z,11.77
2018-08-20T05:55:18.521Z,11.43
2018-08-20T05:57:47.015Z,16.30
2018-08-20T06:00:17.187Z,13.20
2018-08-20T06:02:46.523Z,13.07
2018-08-20T06:05:15.145Z,16.00
2018-08-20T06:07:44.489Z,15.47
2018-08-20T06:10:13.017Z,17.40
2018-08-20T06:12:41.587Z,16.83
2018-08-20T06:15:12.641Z,17.47
2018-08-20T06:17:41.283Z,16.07
2018-08-20T06:20:16.035Z,14.73
2018-08-20T06:22:44.855Z,16.00
2018-08-20T06:25:13.853Z,16.10
2018-08-20T06:27:42.749Z,15.90
2018-08-20T06:30:15.344Z,18.07
2018-08-20T06:32:43.999Z,20.17
2018-08-20T06:35:12.654Z,17.17
2018-08-20T06:37:41.367Z,17.33
2018-08-20T06:40:12.573Z,20.50
2018-08-20T06:42:41.201Z,18.43
2018-08-20T06:45:13.073Z,20.80
2018-08-20T06:47:42.261Z,20.87
2018-08-20T06:50:10.865Z,20.57
2018-08-20T06:52:39.647Z,18.90
2018-08-20T06:55:08.149Z,18.53
2018-08-20T06:57:36.772Z,17.87
2018-08-20T07:00:06.829Z,19.73
2018-08-20T07:02:35.369Z,18.90
2018-08-20T07:05:04.362Z,20.33
2018-08-20T07:07:32.777Z,23.60
2018-08-20T07:10:01.270Z,26.50
2018-08-20T07:12:29.747Z,21.97
2018-08-20T07:14:58.289Z,25.20
2018-08-20T07:17:26.946Z,21.17
2018-08-20T07:19:55.380Z,24.73
2018-08-20T07:22:24.049Z,23.80
2018-08-20T07:24:52.541Z,24.37
2018-08-20T07:27:21.064Z,24.70
2018-08-20T07:29:49.525Z,23.77
2018-08-20T07:32:19.396Z,22.37
2018-08-20T07:34:47.900Z,20.83
2018-08-20T07:37:17.345Z,23.67
2018-08-20T07:39:47.753Z,23.67
2018-08-20T07:42:16.319Z,24.20
2018-08-20T07:44:45.362Z,24.67
2018-08-20T07:47:13.864Z,26.77
2018-08-20T07:49:42.314Z,25.40
2018-08-20T07:52:11.518Z,24.00
2018-08-20T07:54:40.610Z,26.07
2018-08-20T07:57:10.242Z,29.30
2018-08-20T07:59:38.831Z,26.60
2018-08-20T08:02:08.265Z,27.80
2018-08-20T08:04:36.748Z,25.80
2018-08-20T08:07:05.290Z,24.23
2018-08-20T08:09:33.856Z,24.53
2018-08-20T08:12:02.376Z,25.13
2018-08-20T08:14:31.005Z,27.00
2018-08-20T08:16:59.496Z,24.80
2018-08-20T08:19:28.012Z,21.93
2018-08-20T08:21:56.469Z,23.27
2018-08-20T08:24:24.967Z,25.43
2018-08-20T08:26:53.519Z,22.40
2018-08-20T08:29:22.080Z,24.80
2018-08-20T08:31:50.586Z,22.77
2018-08-20T08:34:19.122Z,26.60
2018-08-20T08:36:47.622Z,23.37
2018-08-20T08:39:16.191Z,23.80
2018-08-20T08:41:44.817Z,25.90
2018-08-20T08:44:13.462Z,22.10
2018-08-20T08:46:41.944Z,22.37
2018-08-20T08:49:10.427Z,21.80
2018-08-20T08:51:38.985Z,26.23
2018-08-20T08:54:07.528Z,22.30
2018-08-20T08:56:35.983Z,24.30
2018-08-20T08:59:04.490Z,25.00
2018-08-20T09:01:33.049Z,26.87
2018-08-20T09:04:01.505Z,24.23
2018-08-20T09:06:30.090Z,26.63
2018-08-20T09:08:58.575Z,23.53
2018-08-20T09:11:27.104Z,22.80
2018-08-20T09:13:55.630Z,25.17
2018-08-20T09:16:24.130Z,23.57
2018-08-20T09:18:52.873Z,22.10
2018-08-20T09:21:21.350Z,21.97
2018-08-20T09:23:49.905Z,22.17
2018-08-20T09:26:18.370Z,25.70
2018-08-20T09:28:47.359Z,23.80
2018-08-20T09:31:15.924Z,23.27
2018-08-20T09:33:44.558Z,25.27
2018-08-20T09:36:13.108Z,23.50
2018-08-20T09:38:41.646Z,28.10
2018-08-20T09:41:10.156Z,23.73
2018-08-20T09:43:38.688Z,21.73
2018-08-20T09:46:07.174Z,22.90
2018-08-20T09:48:35.779Z,24.63
2018-08-20T09:51:04.257Z,22.97
2018-08-20T09:53:32.834Z,22.57
2018-08-20T09:56:01.413Z,22.97
2018-08-20T09:58:30.308Z,24.57
2018-08-20T10:00:59.459Z,22.30
2018-08-20T10:03:28.542Z,22.47
2018-08-20T10:05:57.433Z,21.93
2018-08-20T10:08:26.522Z,23.80
2018-08-20T10:10:55.184Z,22.07
2018-08-20T10:13:23.650Z,23.73
2018-08-20T10:15:52.249Z,25.03
2018-08-20T10:18:20.876Z,24.13
2018-08-20T10:20:49.313Z,25.70
2018-08-20T10:23:17.819Z,23.73
2018-08-20T10:25:46.323Z,23.33
2018-08-20T10:28:14.816Z,23.40
2018-08-20T10:30:43.570Z,21.43
2018-08-20T10:33:13.941Z,24.20
2018-08-20T10:35:42.463Z,21.83
2018-08-20T10:38:13.253Z,23.20
2018-08-20T10:40:43.648Z,21.40
2018-08-20T10:43:12.704Z,21.57
2018-08-20T10:46:47.106Z,20.97
2018-08-20T10:49:15.615Z,20.50
2018-08-20T10:51:44.212Z,21.60
2018-08-20T10:54:13.522Z,20.23
2018-08-20T10:56:42.090Z,20.90
2018-08-20T10:59:10.664Z,23.17
2018-08-20T11:01:39.203Z,21.33
2018-08-20T11:04:07.978Z,21.00
2018-08-20T11:06:36.653Z,19.83
2018-08-20T11:09:07.749Z,18.93
2018-08-20T11:11:36.491Z,19.67
2018-08-20T11:14:05.000Z,21.83
2018-08-20T11:16:33.653Z,20.20
2018-08-20T11:19:02.203Z,19.13
2018-08-20T11:21:30.782Z,18.37
2018-08-20T11:23:59.334Z,19.67
2018-08-20T11:26:28.029Z,18.60
2018-08-20T11:28:56.680Z,17.47
2018-08-20T11:31:25.471Z,19.57
2018-08-20T11:33:53.996Z,19.70
2018-08-20T11:36:22.470Z,19.73
2018-08-20T11:38:51.017Z,18.87
2018-08-20T11:41:19.492Z,17.47
2018-08-20T11:43:48.156Z,17.23
2018-08-20T11:46:16.675Z,17.13
2018-08-20T11:48:45.169Z,17.23
2018-08-20T11:51:13.679Z,16.67
2018-08-20T11:53:42.327Z,16.73
2018-08-20T11:56:10.777Z,16.70
2018-08-20T11:58:39.280Z,19.27
2018-08-20T12:01:07.759Z,18.47
2018-08-20T12:03:36.235Z,16.97
2018-08-20T12:06:04.756Z,19.03
2018-08-20T12:08:33.356Z,18.27
2018-08-20T12:11:01.831Z,17.03
2018-08-20T12:13:31.555Z,16.87
2018-08-20T12:16:00.026Z,15.50
2018-08-20T12:18:28.641Z,14.27
2018-08-20T12:20:57.188Z,12.87
2018-08-20T12:23:25.926Z,11.60
2018-08-20T12:25:54.509Z,12.83
2018-08-20T12:28:23.012Z,13.50
2018-08-20T12:30:51.630Z,13.40
2018-08-20T12:33:20.906Z,12.57
2018-08-20T12:35:51.409Z,12.47
2018-08-20T12:38:19.913Z,13.37
2018-08-20T12:40:48.542Z,12.13
2018-08-20T12:43:17.302Z,11.00
2018-08-20T12:45:47.248Z,13.30
2018-08-20T12:48:15.777Z,11.87
2018-08-20T12:50:44.663Z,10.93
2018-08-20T12:53:13.118Z,11.47
2018-08-20T12:55:41.613Z,10.43
2018-08-20T12:58:10.328Z,11.37
2018-08-20T13:00:38.899Z,11.77
2018-08-20T13:03:07.386Z,13.43
2018-08-20T13:05:35.854Z,13.27
2018-08-20T13:08:04.618Z,10.40
2018-08-20T13:10:33.090Z,10.80
2018-08-20T13:13:01.602Z,12.07
2018-08-20T13:15:30.422Z,12.63
2018-08-20T13:17:58.892Z,10.90
2018-08-20T13:20:27.552Z,11.90
2018-08-20T13:22:56.034Z,15.50
2018-08-20T13:25:24.493Z,12.50
2018-08-20T13:27:53.018Z,14.80
2018-08-20T13:30:21.506Z,13.63
2018-08-20T13:32:50.393Z,10.80
2018-08-20T13:35:18.864Z,13.30
2018-08-20T13:37:47.372Z,11.60
2018-08-20T13:40:15.986Z,11.47
2018-08-20T13:42:44.612Z,12.47
2018-08-20T13:45:13.294Z,11.60
2018-08-20T13:47:41.774Z,9.47
2018-08-20T13:50:15.885Z,9.33
2018-08-20T13:52:45.977Z,10.83
2018-08-20T13:55:18.026Z,10.10
2018-08-20T13:57:50.785Z,11.20
2018-08-20T14:00:23.224Z,13.17
2018-08-20T14:02:55.760Z,11.90
2018-08-20T14:05:26.904Z,12.27
2018-08-20T14:07:58.630Z,12.60
2018-08-20T14:10:27.444Z,11.97
2018-08-20T14:12:56.169Z,9.90
2018-08-20T14:15:24.825Z,12.07
2018-08-20T14:17:53.360Z,9.63
2018-08-20T14:20:21.849Z,9.97
2018-08-20T14:22:50.315Z,12.57
2018-08-20T14:25:18.930Z,11.77
2018-08-20T14:27:47.449Z,13.47
2018-08-20T14:30:16.816Z,13.97
2018-08-20T14:32:45.877Z,17.70
2018-08-20T14:35:14.383Z,18.50
2018-08-20T14:37:42.971Z,15.77
2018-08-20T14:40:14.344Z,18.40
2018-08-20T14:42:43.394Z,17.97
2018-08-20T14:45:13.685Z,19.83
2018-08-20T14:47:43.345Z,19.63
2018-08-20T14:50:14.325Z,20.03
2018-08-20T14:52:43.212Z,21.63
2018-08-20T14:55:12.216Z,18.47
2018-08-20T14:57:40.801Z,17.73
2018-08-20T15:00:11.641Z,17.03
2018-08-20T15:02:40.215Z,15.30
2018-08-20T15:05:08.988Z,13.43
2018-08-20T15:07:37.984Z,13.17
2018-08-20T15:10:07.683Z,12.70
2018-08-20T15:12:36.288Z,14.33
2018-08-20T15:15:05.636Z,12.60
2018-08-20T15:17:34.174Z,12.00
2018-08-20T15:20:02.865Z,12.50
2018-08-20T15:22:31.319Z,12.27
2018-08-20T15:24:59.783Z,14.47
2018-08-20T15:27:28.341Z,14.77
2018-08-20T15:29:56.832Z,19.23
2018-08-20T15:32:25.503Z,11.70
2018-08-20T15:34:54.168Z,12.73
2018-08-20T15:37:22.959Z,12.80
2018-08-20T15:39:51.764Z,11.80
2018-08-20T15:42:20.392Z,12.47
2018-08-20T15:44:48.909Z,12.07
2018-08-20T15:47:17.431Z,11.33
2018-08-20T15:49:45.878Z,12.60
2018-08-20T15:52:14.451Z,14.50
2018-08-20T15:54:42.909Z,11.40
2018-08-20T15:57:11.623Z,11.40
2018-08-20T15:59:40.086Z,12.17
2018-08-20T16:02:08.587Z,11.87
2018-08-20T16:04:37.068Z,11.67
2018-08-20T16:07:05.651Z,11.03
2018-08-20T16:09:34.221Z,9.90
2018-08-20T16:12:02.785Z,11.13
2018-08-20T16:14:31.228Z,9.90
2018-08-20T16:16:59.676Z,9.57
2018-08-20T16:19:28.288Z,10.20
2018-08-20T16:21:56.846Z,10.23
2018-08-20T16:24:25.336Z,7.77
2018-08-20T16:26:53.948Z,8.57
2018-08-20T16:29:22.625Z,9.40
2018-08-20T16:31:51.129Z,7.20
2018-08-20T16:34:19.666Z,6.60
2018-08-20T16:36:51.108Z,6.30
2018-08-20T16:39:19.758Z,5.90
2018-08-20T16:41:48.131Z,6.20
2018-08-20T16:44:16.645Z,5.90
2018-08-20T16:46:45.091Z,7.17
2018-08-20T16:49:13.675Z,5.53
2018-08-20T16:51:42.176Z,6.20
2018-08-20T16:54:10.721Z,5.07
2018-08-20T16:56:39.506Z,5.13
2018-08-20T16:59:08.000Z,5.33
2018-08-20T17:01:36.487Z,5.30
2018-08-20T17:04:05.793Z,8.20
2018-08-20T17:06:46.923Z,4.97
2018-08-20T17:09:15.422Z,4.60
2018-08-20T17:11:43.885Z,5.33
2018-08-20T17:14:12.580Z,4.67
2018-08-20T17:16:41.168Z,5.33
2018-08-20T17:19:09.736Z,7.40
2018-08-20T17:21:38.217Z,4.40
2018-08-20T17:24:06.883Z,5.17
2018-08-20T17:26:35.346Z,6.13
2018-08-20T17:29:09.031Z,6.57
2018-08-20T17:31:37.659Z,5.30
2018-08-20T17:34:06.216Z,4.80
2018-08-20T17:36:37.885Z,4.50
2018-08-20T17:39:07.839Z,4.80
2018-08-20T17:41:36.353Z,5.23
2018-08-20T17:44:05.007Z,4.67
2018-08-20T17:46:33.503Z,6.40
2018-08-20T17:49:02.108Z,4.17
2018-08-20T17:51:31.001Z,4.97
2018-08-20T17:54:00.094Z,4.40
2018-08-20T17:56:28.663Z,5.90
2018-08-20T17:59:02.461Z,4.60
2018-08-20T18:01:35.331Z,4.00
2018-08-20T18:04:04.237Z,4.07
2018-08-20T18:06:44.752Z,4.80
2018-08-20T18:09:13.745Z,5.57
2018-08-20T18:11:46.714Z,4.23
2018-08-20T18:14:15.314Z,4.47
2018-08-20T18:16:43.837Z,3.87
2018-08-20T18:19:12.392Z,4.00
2018-08-20T18:21:40.959Z,4.23
2018-08-20T18:24:15.145Z,5.30
2018-08-20T18:26:46.305Z,5.00
2018-08-20T18:29:15.041Z,4.97
2018-08-20T18:31:43.607Z,6.57
2018-08-20T18:34:12.190Z,4.70
2018-08-20T18:36:40.654Z,4.87
2018-08-20T18:39:11.982Z,5.20
2018-08-20T18:41:51.238Z,5.90
2018-08-20T18:44:21.253Z,6.90
2018-08-20T18:46:50.431Z,5.27
2018-08-20T18:49:19.116Z,5.13
2018-08-20T18:51:51.966Z,3.83
2018-08-20T18:54:20.556Z,5.53
2018-08-20T18:56:53.345Z,3.87
2018-08-20T18:59:21.836Z,4.87
2018-08-20T19:01:50.369Z,5.47
2018-08-20T19:04:18.947Z,4.43
2018-08-20T19:06:49.986Z,4.80
2018-08-20T19:09:18.482Z,3.90
2018-08-20T19:11:47.050Z,4.60
2018-08-20T19:14:15.557Z,5.63
2018-08-20T19:16:44.046Z,5.37
2018-08-20T19:19:12.595Z,4.93
2018-08-20T19:21:41.979Z,4.27
2018-08-20T19:24:10.760Z,3.97
2018-08-20T19:26:39.418Z,4.60
2018-08-20T19:29:23.040Z,4.83
2018-08-20T19:31:51.898Z,4.67
2018-08-20T19:34:20.423Z,4.20
2018-08-20T19:36:48.960Z,7.97
2018-08-20T19:39:17.757Z,4.47
2018-08-20T19:41:46.300Z,4.27
2018-08-20T19:44:14.820Z,5.70
2018-08-20T19:46:43.699Z,5.30
2018-08-20T19:49:15.013Z,4.33
2018-08-20T19:51:45.598Z,5.90
2018-08-20T19:54:16.713Z,5.37
2018-08-20T19:56:45.954Z,6.53
2018-08-20T19:59:18.392Z,5.00
2018-08-20T20:01:47.410Z,8.57
2018-08-20T20:04:16.708Z,4.27
2018-08-20T20:06:45.190Z,4.77
2018-08-20T20:09:13.874Z,4.60
2018-08-20T20:11:44.914Z,4.07
2018-08-20T20:14:13.490Z,8.40
2018-08-20T20:16:47.144Z,4.37
2018-08-20T20:19:15.645Z,4.43
2018-08-20T20:21:44.291Z,4.23
2018-08-20T20:24:13.475Z,4.97
2018-08-20T20:26:42.279Z,4.23
2018-08-20T20:29:11.468Z,5.63
2018-08-20T20:31:41.293Z,4.53
2018-08-20T20:34:09.853Z,4.63
2018-08-20T20:36:38.405Z,4.67
2018-08-20T20:39:09.081Z,5.87
2018-08-20T20:41:37.679Z,4.87
2018-08-20T20:44:06.825Z,4.47
2018-08-20T20:46:35.384Z,6.93
2018-08-20T20:49:04.075Z,5.20
2018-08-20T20:51:32.555Z,4.80
2018-08-20T20:54:01.058Z,6.00
2018-08-20T20:56:29.887Z,6.07
2018-08-20T20:58:58.489Z,5.97
2018-08-20T21:01:27.166Z,5.30
2018-08-20T21:03:55.672Z,5.53
2018-08-20T21:06:25.769Z,5.97
2018-08-20T21:08:55.125Z,5.37
2018-08-20T21:11:24.462Z,7.93
2018-08-20T21:13:52.971Z,6.03
2018-08-20T21:16:23.649Z,6.70
2018-08-20T21:18:55.359Z,6.43
2018-08-20T21:21:24.655Z,6.00
2018-08-20T21:23:53.254Z,6.60
2018-08-20T21:26:21.803Z,7.27
2018-08-20T21:28:53.272Z,5.83
2018-08-20T21:31:23.005Z,5.70
2018-08-20T21:33:54.485Z,7.83
2018-08-20T21:36:23.042Z,9.23
2018-08-20T21:38:51.505Z,5.43
2018-08-20T21:41:23.475Z,5.37
2018-08-20T21:43:52.684Z,5.87
2018-08-20T21:46:21.441Z,5.23
2018-08-20T21:48:50.018Z,4.73
2018-08-20T21:51:28.648Z,5.00
2018-08-20T21:53:57.630Z,4.90
2018-08-20T21:56:36.007Z,5.73
2018-08-20T21:59:04.655Z,4.50
2018-08-20T22:01:33.213Z,4.90
2018-08-20T22:04:06.038Z,4.67
2018-08-20T22:06:34.515Z,4.70
2018-08-20T22:09:03.097Z,5.57
2018-08-20T22:11:31.868Z,5.23
2018-08-20T22:14:00.398Z,6.40
2018-08-20T22:16:29.626Z,6.17
2018-08-20T22:18:59.416Z,6.40
2018-08-20T22:21:27.888Z,5.47
2018-08-20T22:23:58.026Z,8.87
2018-08-20T22:26:26.715Z,6.73
2018-08-20T22:28:55.348Z,6.13
2018-08-20T22:31:23.914Z,6.33
2018-08-20T22:33:58.894Z,7.47
2018-08-20T22:36:29.573Z,7.57
2018-08-20T22:38:59.526Z,7.50
2018-08-20T22:41:29.301Z,6.77
2018-08-20T22:43:57.771Z,7.37
2018-08-20T22:46:26.579Z,8.23
2018-08-20T22:48:57.069Z,7.17
2018-08-20T22:51:27.056Z,6.80
2018-08-20T22:53:58.165Z,7.07
2018-08-20T22:56:29.958Z,6.97
2018-08-20T22:59:04.878Z,6.77
2018-08-20T23:01:33.439Z,8.77
2018-08-20T23:04:01.954Z,6.67
2018-08-20T23:06:30.672Z,6.97
2018-08-20T23:08:59.403Z,6.30
2018-08-20T23:11:41.085Z,6.97
2018-08-20T23:14:11.324Z,6.47
2018-08-20T23:16:40.327Z,6.90
2018-08-20T23:19:09.405Z,6.47
2018-08-20T23:21:42.811Z,7.10
2018-08-20T23:24:13.088Z,7.00
2018-08-20T23:26:41.672Z,6.13
2018-08-20T23:29:10.623Z,7.77
2018-08-20T23:31:39.644Z,6.97
2018-08-20T23:34:11.581Z,6.90
2018-08-20T23:36:40.605Z,6.37
2018-08-20T23:39:11.396Z,8.47
2018-08-20T23:41:40.283Z,7.70
2018-08-20T23:44:09.255Z,7.10
2018-08-20T23:46:43.544Z,7.27
2018-08-20T23:49:12.004Z,8.00
2018-08-20T23:51:40.540Z,7.33
2018-08-20T23:54:10.180Z,6.90
2018-08-20T23:56:38.759Z,7.30
2018-08-20T23:59:07.234Z,8.00
